createdAt,value
2023-05-06T00:00:52.588Z,101216.13
2023-05-06T00:03:21.157Z,101212.16
2023-05-06T00:05:49.795Z,101213.53
2023-05-06T00:08:18.649Z,101218.56
2023-05-06T00:10:47.152Z,101216.59
2023-05-06T00:13:16.201Z,101211.91
2023-05-06T00:15:46.205Z,101207.22
2023-05-06T00:18:15.363Z,101200.84
2023-05-06T00:20:44.487Z,101204.25
2023-05-06T00:23:12.907Z,101199.56
2023-05-06T00:25:41.273Z,101195.72
2023-05-06T00:28:09.589Z,101199.94
2023-05-06T00:30:38.068Z,101204.16
2023-05-06T00:33:08.136Z,101199.63
2023-05-06T00:35:36.669Z,101201.31
2023-05-06T00:38:09.840Z,101195.47
2023-05-06T00:40:38.397Z,101195.31
2023-05-06T00:43:07.148Z,101187.47
2023-05-06T00:45:35.805Z,101179.94
2023-05-06T00:48:05.871Z,101173.09
2023-05-06T00:50:36.737Z,101175.63
2023-05-06T00:53:06.985Z,101175.47
2023-05-06T00:55:35.451Z,101174.84
2023-05-06T00:58:04.434Z,101169.66
2023-05-06T01:00:34.857Z,101165.66
2023-05-06T01:03:03.570Z,101149.53
2023-05-06T01:05:41.593Z,101156.59
2023-05-06T01:08:18.869Z,101168.34
2023-05-06T01:10:53.711Z,101167.50
2023-05-06T01:13:30.080Z,101169.34
2023-05-06T01:16:01.145Z,101157.91
2023-05-06T01:18:33.404Z,101160.28
2023-05-06T01:21:06.469Z,101156.59
2023-05-06T01:23:55.329Z,101152.22
2023-05-06T01:26:24.049Z,101139.72
2023-05-06T01:28:52.479Z,101155.28
2023-05-06T01:31:27.197Z,101151.59
2023-05-06T01:34:06.700Z,101150.44
2023-05-06T01:36:42.488Z,101145.91
2023-05-06T01:39:18.194Z,101120.28
2023-05-06T01:41:50.027Z,101143.06
2023-05-06T01:44:21.601Z,101154.69
2023-05-06T01:46:51.458Z,101126.41
2023-05-06T01:49:23.362Z,101147.13
2023-05-06T01:51:52.670Z,101142.59
2023-05-06T01:54:22.600Z,101142.13
2023-05-06T01:56:51.059Z,101134.91
2023-05-06T01:59:19.540Z,101131.19
2023-05-06T02:01:48.264Z,101148.34
2023-05-06T02:04:16.685Z,101145.97
2023-05-06T02:06:45.141Z,101146.66
2023-05-06T02:09:16.499Z,101143.34
2023-05-06T02:11:52.204Z,101142.53
2023-05-06T02:14:20.656Z,101148.63
2023-05-06T02:16:49.627Z,101147.78
2023-05-06T02:19:18.078Z,101147.78
2023-05-06T02:21:46.564Z,101139.84
2023-05-06T02:24:15.020Z,101136.31
2023-05-06T02:26:43.460Z,101127.09
2023-05-06T02:29:13.224Z,101131.78
2023-05-06T02:31:41.677Z,101133.97
2023-05-06T02:34:10.337Z,101136.03
2023-05-06T02:36:38.801Z,101130.16
2023-05-06T02:39:07.297Z,101132.22
2023-05-06T02:41:36.875Z,101137.44
2023-05-06T02:44:06.299Z,101140.13
2023-05-06T02:46:36.417Z,101140.81
2023-05-06T02:49:05.052Z,101116.88
2023-05-06T02:51:33.400Z,101127.66
2023-05-06T02:54:01.848Z,101133.38
2023-05-06T02:56:30.328Z,101118.91
2023-05-06T02:58:58.692Z,101126.00
2023-05-06T03:01:28.370Z,101110.97
2023-05-06T03:03:58.349Z,101128.03
2023-05-06T03:06:26.845Z,101129.03
2023-05-06T03:08:55.184Z,101128.03
2023-05-06T03:11:23.696Z,101126.34
2023-05-06T03:13:52.292Z,101135.59
2023-05-06T03:16:20.678Z,101127.66
2023-05-06T03:18:52.297Z,101125.16
2023-05-06T03:21:22.733Z,101118.91
2023-05-06T03:23:53.053Z,101115.53
2023-05-06T03:26:24.697Z,101118.91
2023-05-06T03:28:53.626Z,101107.63
2023-05-06T03:31:23.607Z,101100.22
2023-05-06T03:33:52.543Z,101104.06
2023-05-06T03:36:24.040Z,101103.38
2023-05-06T03:38:54.659Z,101102.72
2023-05-06T03:41:25.126Z,101105.41
2023-05-06T03:43:56.207Z,101104.56
2023-05-06T03:46:28.048Z,101100.81
2023-05-06T03:48:56.771Z,101101.44
2023-05-06T03:51:26.622Z,101102.25
2023-05-06T03:53:56.877Z,101100.88
2023-05-06T03:56:26.347Z,101099.88
2023-05-06T03:58:58.153Z,101099.72
2023-05-06T04:01:28.359Z,101097.53
2023-05-06T04:03:57.019Z,101103.09
2023-05-06T04:06:28.722Z,101081.63
2023-05-06T04:08:57.292Z,101095.81
2023-05-06T04:11:28.061Z,101098.97
2023-05-06T04:13:59.363Z,101097.44
2023-05-06T04:16:28.087Z,101096.75
2023-05-06T04:18:57.684Z,101086.69
2023-05-06T04:21:28.172Z,101094.59
2023-05-06T04:24:02.634Z,101096.44
2023-05-06T04:26:38.015Z,101090.22
2023-05-06T04:29:07.137Z,101096.75
2023-05-06T04:31:42.345Z,101097.59
2023-05-06T04:34:13.625Z,101096.91
2023-05-06T04:36:43.684Z,101103.81
2023-05-06T04:39:37.184Z,101105.81
2023-05-06T04:42:06.299Z,101109.84
2023-05-06T04:44:42.491Z,101106.16
2023-05-06T04:47:12.346Z,101102.63
2023-05-06T04:49:43.767Z,101111.22
2023-05-06T04:52:13.788Z,101110.03
2023-05-06T04:54:44.844Z,101104.66
2023-05-06T04:57:14.047Z,101103.34
2023-05-06T04:59:45.160Z,101109.41
2023-05-06T05:02:14.155Z,101113.78
2023-05-06T05:04:44.421Z,101104.88
2023-05-06T05:07:14.399Z,101105.88
2023-05-06T05:09:43.201Z,101111.09
2023-05-06T05:12:11.571Z,101106.56
2023-05-06T05:14:44.474Z,101109.94
2023-05-06T05:17:14.370Z,101108.25
2023-05-06T05:19:43.550Z,101113.09
2023-05-06T05:22:14.712Z,101115.63
2023-05-06T05:24:43.269Z,101114.47
2023-05-06T05:27:12.790Z,101115.31
2023-05-06T05:29:42.064Z,101115.63
2023-05-06T05:32:11.213Z,101121.00
2023-05-06T05:34:40.534Z,101119.16
2023-05-06T05:37:10.401Z,101115.09
2023-05-06T05:39:40.468Z,101116.31
2023-05-06T05:42:11.284Z,101113.78
2023-05-06T05:44:42.085Z,101115.25
2023-05-06T05:47:10.561Z,101121.50
2023-05-06T05:49:39.282Z,101124.69
2023-05-06T05:52:09.966Z,101125.91
2023-05-06T05:54:40.265Z,101129.63
2023-05-06T05:57:08.700Z,101127.28
2023-05-06T05:59:38.190Z,101126.47
2023-05-06T06:02:08.199Z,101128.41
2023-05-06T06:04:36.759Z,101133.53
2023-05-06T06:07:06.067Z,101128.38
2023-05-06T06:09:39.859Z,101140.03
2023-05-06T06:12:09.714Z,101142.28
2023-05-06T06:14:41.318Z,101131.94
2023-05-06T06:17:10.862Z,101136.78
2023-05-06T06:19:39.645Z,101132.91
2023-05-06T06:22:08.227Z,101128.66
2023-05-06T06:24:37.154Z,101130.94
2023-05-06T06:27:07.102Z,101126.41
2023-05-06T06:29:35.673Z,101129.44
2023-05-06T06:32:04.784Z,101130.69
2023-05-06T06:34:33.463Z,101131.44
2023-05-06T06:37:01.949Z,101130.13
2023-05-06T06:39:30.447Z,101127.59
2023-05-06T06:41:59.515Z,101124.25
2023-05-06T06:44:31.456Z,101122.69
2023-05-06T06:47:01.062Z,101124.75
2023-05-06T06:49:29.472Z,101124.59
2023-05-06T06:51:58.028Z,101130.94
2023-05-06T06:54:26.387Z,101126.19
2023-05-06T06:56:56.167Z,101118.38
2023-05-06T06:59:24.611Z,101124.06
2023-05-06T07:01:54.491Z,101131.22
2023-05-06T07:04:22.866Z,101126.84
2023-05-06T07:06:51.415Z,101131.63
2023-05-06T07:09:19.845Z,101122.75
2023-05-06T07:11:48.307Z,101119.34
2023-05-06T07:14:16.717Z,101120.09
2023-05-06T07:16:46.349Z,101122.22
2023-05-06T07:19:17.020Z,101117.81
2023-05-06T07:21:45.503Z,101109.94
2023-05-06T07:24:13.845Z,101126.88
2023-05-06T07:26:42.324Z,101134.81
2023-05-06T07:29:10.948Z,101131.78
2023-05-06T07:31:41.532Z,101131.94
2023-05-06T07:34:09.997Z,101127.75
2023-05-06T07:36:43.513Z,101136.75
2023-05-06T07:39:12.663Z,101140.56
2023-05-06T07:41:41.104Z,101148.03
2023-05-06T07:44:09.526Z,101149.78
2023-05-06T07:46:38.183Z,101145.13
2023-05-06T07:49:06.865Z,101147.28
2023-05-06T07:51:35.485Z,101143.06
2023-05-06T07:54:06.208Z,101140.97
2023-05-06T07:56:34.891Z,101133.97
2023-05-06T07:59:03.621Z,101132.91
2023-05-06T08:01:32.421Z,101134.03
2023-05-06T08:04:01.133Z,101139.63
2023-05-06T08:06:29.703Z,101137.53
2023-05-06T08:08:58.166Z,101134.66
2023-05-06T08:11:28.013Z,101133.22
2023-05-06T08:13:57.508Z,101132.41
2023-05-06T08:16:25.981Z,101130.19
2023-05-06T08:18:54.529Z,101128.28
2023-05-06T08:21:23.037Z,101132.53
2023-05-06T08:23:51.561Z,101130.94
2023-05-06T08:26:19.934Z,101122.19
2023-05-06T08:28:49.738Z,101134.22
2023-05-06T08:31:18.365Z,101131.94
2023-05-06T08:33:46.807Z,101130.88
2023-05-06T08:36:15.287Z,101140.47
2023-05-06T08:38:49.106Z,101140.03
2023-05-06T08:41:20.446Z,101140.31
2023-05-06T08:43:51.566Z,101122.13
2023-05-06T08:46:20.252Z,101140.75
2023-05-06T08:48:48.834Z,101132.81
2023-05-06T08:51:17.765Z,101134.50
2023-05-06T08:53:49.773Z,101109.78
2023-05-06T08:56:19.522Z,101143.28
2023-05-06T08:58:49.973Z,101144.72
2023-05-06T09:01:18.453Z,101144.44
2023-05-06T09:03:48.545Z,101140.25
2023-05-06T09:06:17.144Z,101148.25
2023-05-06T09:08:45.538Z,101145.75
2023-05-06T09:11:24.809Z,101143.66
2023-05-06T09:14:09.894Z,101139.91
2023-05-06T09:16:39.197Z,101137.59
2023-05-06T09:19:07.772Z,101132.75
2023-05-06T09:21:38.387Z,101138.94
2023-05-06T09:24:09.036Z,101136.19
2023-05-06T09:26:39.543Z,101135.91
2023-05-06T09:29:09.519Z,101135.44
2023-05-06T09:31:42.846Z,101125.84
2023-05-06T09:34:12.249Z,101133.59
2023-05-06T09:36:40.744Z,101121.28
2023-05-06T09:39:10.270Z,101117.63
2023-05-06T09:41:38.991Z,101112.00
2023-05-06T09:44:08.890Z,101117.28
2023-05-06T09:46:38.325Z,101106.59
2023-05-06T09:49:07.548Z,101107.59
2023-05-06T09:51:35.923Z,101111.06
2023-05-06T09:54:05.404Z,101108.16
2023-05-06T09:56:34.330Z,101100.66
2023-05-06T09:59:04.462Z,101094.66
2023-05-06T10:01:37.510Z,101097.56
2023-05-06T10:04:10.316Z,101094.88
2023-05-06T10:06:41.457Z,101096.94
2023-05-06T10:09:10.677Z,101096.47
2023-05-06T10:11:40.009Z,101094.06
2023-05-06T10:14:09.363Z,101084.25
2023-05-06T10:16:40.627Z,101071.00
2023-05-06T10:19:09.811Z,101072.94
2023-05-06T10:21:41.183Z,101076.75
2023-05-06T10:24:14.475Z,101062.97
2023-05-06T10:26:46.768Z,101060.84
2023-05-06T10:29:15.283Z,101069.94
2023-05-06T10:31:52.679Z,101046.38
2023-05-06T10:34:22.537Z,101067.66
2023-05-06T10:36:53.250Z,101062.91
2023-05-06T10:39:22.367Z,101061.84
2023-05-06T10:41:50.990Z,101063.31
2023-05-06T10:44:19.424Z,101056.31
2023-05-06T10:47:07.236Z,101047.84
2023-05-06T10:49:35.779Z,101048.00
2023-05-06T10:52:17.416Z,101045.25
2023-05-06T10:54:50.833Z,101049.06
2023-05-06T10:57:20.976Z,101045.50
2023-05-06T10:59:50.275Z,101050.50
2023-05-06T11:02:21.577Z,101043.34
2023-05-06T11:04:54.025Z,101037.97
2023-05-06T11:07:26.046Z,101031.19
2023-05-06T11:09:59.502Z,100814.63
2023-05-06T11:12:47.424Z,101023.84
2023-05-06T11:15:40.587Z,101022.66
2023-05-06T11:18:44.948Z,101017.72
2023-05-06T11:21:41.685Z,101018.91
2023-05-06T11:24:12.524Z,101010.69
2023-05-06T11:26:44.559Z,100999.88
2023-05-06T11:29:12.939Z,101009.66
2023-05-06T11:31:43.258Z,100997.13
2023-05-06T11:34:23.790Z,100996.19
2023-05-06T11:37:02.484Z,101005.47
2023-05-06T11:39:39.948Z,101004.97
2023-05-06T11:42:09.941Z,101002.69
2023-05-06T11:44:40.211Z,100999.59
2023-05-06T11:47:10.208Z,100993.09
2023-05-06T11:49:42.032Z,100997.59
2023-05-06T11:52:11.521Z,100961.41
2023-05-06T11:54:41.241Z,100960.34
2023-05-06T11:57:10.722Z,100991.28
2023-05-06T11:59:40.235Z,100982.94
2023-05-06T12:02:10.128Z,100982.63
2023-05-06T12:04:41.401Z,100988.53
2023-05-06T12:07:11.105Z,100986.38
2023-05-06T12:09:41.927Z,100986.06
2023-05-06T12:12:11.624Z,100989.91
2023-05-06T12:14:40.719Z,100992.38
2023-05-06T12:17:09.488Z,100997.78
2023-05-06T12:19:39.658Z,100996.16
2023-05-06T12:22:19.433Z,100995.72
2023-05-06T12:24:48.716Z,100991.56
2023-05-06T12:27:30.610Z,100990.47
2023-05-06T12:29:59.238Z,100999.53
2023-05-06T12:32:28.095Z,100996.91
2023-05-06T12:34:59.593Z,100995.47
2023-05-06T12:37:29.927Z,100994.28
2023-05-06T12:39:59.542Z,100997.97
2023-05-06T12:42:28.635Z,100998.81
2023-05-06T12:44:59.507Z,101000.13
2023-05-06T12:47:28.029Z,101000.59
2023-05-06T12:49:59.476Z,101001.81
2023-05-06T12:52:30.221Z,100995.50
2023-05-06T12:54:59.171Z,100998.72
2023-05-06T12:57:27.850Z,100996.69
2023-05-06T12:59:56.609Z,100992.03
2023-05-06T13:02:25.242Z,100988.22
2023-05-06T13:04:53.830Z,101000.13
2023-05-06T13:07:23.640Z,100995.84
2023-05-06T13:09:52.036Z,100989.88
2023-05-06T13:12:20.419Z,100994.66
2023-05-06T13:14:48.848Z,100990.13
2023-05-06T13:17:17.493Z,100997.06
2023-05-06T13:19:46.530Z,100989.78
2023-05-06T13:22:14.916Z,100985.38
2023-05-06T13:24:44.852Z,100986.22
2023-05-06T13:27:13.272Z,100984.53
2023-05-06T13:29:41.914Z,100983.59
2023-05-06T13:32:11.648Z,100983.59
2023-05-06T13:34:40.180Z,100974.91
2023-05-06T13:37:08.818Z,100975.84
2023-05-06T13:39:37.158Z,100981.41
2023-05-06T13:42:08.397Z,100978.19
2023-05-06T13:44:37.703Z,100967.47
2023-05-06T13:47:07.664Z,100967.38
2023-05-06T13:49:36.092Z,100960.25
2023-05-06T13:52:08.035Z,100957.88
2023-05-06T13:54:37.953Z,100952.72
2023-05-06T13:57:07.638Z,100949.06
2023-05-06T13:59:36.067Z,100951.09
2023-05-06T14:02:08.138Z,100958.34
2023-05-06T14:04:38.172Z,100948.31
2023-05-06T14:07:06.559Z,100948.69
2023-05-06T14:09:34.913Z,100950.59
2023-05-06T14:12:03.241Z,100947.63
2023-05-06T14:14:33.114Z,100948.34
2023-05-06T14:17:02.394Z,100950.97
2023-05-06T14:19:31.115Z,100957.16
2023-05-06T14:21:59.530Z,100946.31
2023-05-06T14:24:27.894Z,100946.09
2023-05-06T14:26:56.353Z,100944.75
2023-05-06T14:29:24.856Z,100937.53
2023-05-06T14:31:54.839Z,100938.09
2023-05-06T14:34:23.381Z,100938.22
2023-05-06T14:36:51.914Z,100942.09
2023-05-06T14:39:20.286Z,100940.44
2023-05-06T14:41:48.839Z,100944.97
2023-05-06T14:44:19.304Z,100942.47
2023-05-06T14:46:47.729Z,100940.31
2023-05-06T14:49:17.574Z,100950.03
2023-05-06T14:51:47.887Z,100946.13
2023-05-06T14:54:16.452Z,100942.78
2023-05-06T14:56:46.897Z,100944.16
2023-05-06T14:59:15.339Z,100948.25
2023-05-06T15:01:43.900Z,100944.91
2023-05-06T15:04:12.386Z,100944.63
2023-05-06T15:06:42.168Z,100945.00
2023-05-06T15:09:10.526Z,100939.91
2023-05-06T15:11:38.860Z,100926.47
2023-05-06T15:14:07.608Z,100937.19
2023-05-06T15:16:36.102Z,100925.72
2023-05-06T15:19:04.808Z,100932.09
2023-05-06T15:21:33.414Z,100927.13
2023-05-06T15:24:03.657Z,100923.78
2023-05-06T15:26:32.194Z,100935.78
2023-05-06T15:29:00.609Z,100939.44
2023-05-06T15:31:29.361Z,100938.66
2023-05-06T15:33:59.576Z,100921.69
2023-05-06T15:36:28.987Z,100923.81
2023-05-06T15:39:02.327Z,100927.59
2023-05-06T15:41:33.902Z,100924.88
2023-05-06T15:44:06.111Z,100923.81
2023-05-06T15:46:35.282Z,100918.63
2023-05-06T15:49:31.822Z,100921.81
2023-05-06T15:51:53.350Z,100912.09
2023-05-06T15:54:21.734Z,100916.72
2023-05-06T15:56:51.582Z,100922.88
2023-05-06T15:59:20.046Z,100923.31
2023-05-06T16:04:20.329Z,100918.03
2023-05-06T16:06:48.803Z,100914.91
2023-05-06T16:09:18.370Z,100914.13
2023-05-06T16:11:46.711Z,100917.56
2023-05-06T16:14:17.725Z,100911.13
2023-05-06T16:16:46.292Z,100910.31
2023-05-06T16:19:14.793Z,100915.03
2023-05-06T16:21:43.270Z,100907.38
2023-05-06T16:24:11.662Z,100915.47
2023-05-06T16:26:40.246Z,100917.69
2023-05-06T16:29:08.683Z,100911.47
2023-05-06T16:31:39.095Z,100912.91
2023-05-06T16:34:07.499Z,100921.25
2023-05-06T16:36:35.834Z,100921.88
2023-05-06T16:39:06.566Z,100922.94
2023-05-06T16:41:38.798Z,100916.66
2023-05-06T16:44:07.415Z,100909.34
2023-05-06T16:46:35.853Z,100911.47
2023-05-06T16:49:06.031Z,100909.81
2023-05-06T16:51:34.589Z,100898.13
2023-05-06T16:54:03.792Z,100904.44
2023-05-06T16:56:44.179Z,100908.94
2023-05-06T16:59:21.984Z,100905.38
2023-05-06T17:01:51.213Z,100899.34
2023-05-06T17:04:21.070Z,100902.09
2023-05-06T17:06:49.526Z,100901.25
2023-05-06T17:09:18.227Z,100901.69
2023-05-06T17:11:46.656Z,100901.34
2023-05-06T17:14:15.072Z,100896.78
2023-05-06T17:16:45.892Z,100900.31
2023-05-06T17:19:14.825Z,100893.84
2023-05-06T17:21:44.651Z,100888.03
2023-05-06T17:24:13.116Z,100893.91
2023-05-06T17:26:43.495Z,100886.38
2023-05-06T17:29:11.962Z,100885.38
2023-05-06T17:31:40.465Z,100887.91
2023-05-06T17:34:09.064Z,100884.34
2023-05-06T17:36:37.407Z,100892.94
2023-05-06T17:39:07.807Z,100895.66
2023-05-06T17:41:38.281Z,100889.00
2023-05-06T17:44:07.654Z,100895.25
2023-05-06T17:46:36.249Z,100887.72
2023-05-06T17:49:06.154Z,100886.66
2023-05-06T17:51:35.662Z,100878.91
2023-05-06T17:54:04.411Z,100885.84
2023-05-06T17:56:34.306Z,100890.00
2023-05-06T17:59:02.777Z,100888.13
2023-05-06T18:01:31.395Z,100893.97
2023-05-06T18:04:00.434Z,100905.47
2023-05-06T18:06:28.977Z,100903.78
2023-05-06T18:08:57.501Z,100902.72
2023-05-06T18:11:25.987Z,100904.78
2023-05-06T18:13:55.869Z,100903.13
2023-05-06T18:16:24.316Z,100911.47
2023-05-06T18:18:52.810Z,100918.91
2023-05-06T18:21:21.303Z,100927.22
2023-05-06T18:23:53.505Z,100929.09
2023-05-06T18:26:39.915Z,100923.84
2023-05-06T18:29:13.472Z,100927.75
2023-05-06T18:31:42.051Z,100929.41
2023-05-06T18:34:10.677Z,100926.47
2023-05-06T18:36:39.112Z,100930.81
2023-05-06T18:39:07.709Z,100941.03
2023-05-06T18:41:36.199Z,100954.53
2023-05-06T18:44:05.492Z,100955.34
2023-05-06T18:46:35.263Z,100956.53
2023-05-06T18:49:03.866Z,100955.81
2023-05-06T18:51:32.317Z,100952.84
2023-05-06T18:54:01.056Z,100963.47
2023-05-06T18:56:29.529Z,100968.63
2023-05-06T18:58:57.963Z,100964.81
2023-05-06T19:01:26.604Z,100963.47
2023-05-06T19:03:57.029Z,100969.44
2023-05-06T19:06:25.552Z,100969.56
2023-05-06T19:08:54.382Z,100972.47
2023-05-06T19:11:22.908Z,100968.66
2023-05-06T19:13:52.159Z,100981.69
2023-05-06T19:16:20.596Z,100988.81
2023-05-06T19:18:49.055Z,100988.84
2023-05-06T19:21:18.885Z,100991.66
2023-05-06T19:23:47.175Z,100993.44
2023-05-06T19:26:16.015Z,100975.56
2023-05-06T19:28:44.341Z,101004.75
2023-05-06T19:31:12.969Z,100993.56
2023-05-06T19:33:41.597Z,101000.47
2023-05-06T19:36:10.152Z,101002.59
2023-05-06T19:38:39.897Z,101011.50
2023-05-06T19:41:08.594Z,101007.84
2023-05-06T19:43:42.289Z,101005.88
2023-05-06T19:46:10.773Z,101010.72
2023-05-06T19:48:39.736Z,101010.59
2023-05-06T19:51:08.835Z,101014.56
2023-05-06T19:53:37.809Z,101019.22
2023-05-06T19:56:14.279Z,101013.06
2023-05-06T19:58:42.682Z,101010.78
2023-05-06T20:01:11.262Z,101015.88
2023-05-06T20:03:40.317Z,101018.22
2023-05-06T20:06:08.988Z,101022.59
2023-05-06T20:08:37.321Z,101032.28
2023-05-06T20:11:06.316Z,101035.41
2023-05-06T20:13:38.133Z,101040.22
2023-05-06T20:16:07.277Z,101043.78
2023-05-06T20:18:35.687Z,101046.88
2023-05-06T20:21:04.101Z,101041.66
2023-05-06T20:23:32.463Z,101041.53
2023-05-06T20:26:00.906Z,101051.31
2023-05-06T20:28:29.231Z,101042.78
2023-05-06T20:31:00.093Z,101045.53
2023-05-06T20:33:28.539Z,101050.09
2023-05-06T20:35:58.009Z,101055.19
2023-05-06T20:38:27.390Z,101062.31
2023-05-06T20:40:55.721Z,101058.47
2023-05-06T20:43:25.265Z,101055.28
2023-05-06T20:45:53.896Z,101052.13
2023-05-06T20:48:23.707Z,101049.13
2023-05-06T20:50:54.325Z,101048.63
2023-05-06T20:53:23.026Z,101035.16
2023-05-06T20:55:51.405Z,101047.97
2023-05-06T20:58:19.940Z,101051.31
2023-05-06T21:00:48.303Z,101060.41
2023-05-06T21:03:16.977Z,101061.75
2023-05-06T21:05:46.890Z,101061.41
2023-05-06T21:08:16.306Z,101066.16
2023-05-06T21:10:45.396Z,101058.06
2023-05-06T21:13:14.126Z,101058.06
2023-05-06T21:15:42.476Z,101066.50
2023-05-06T21:18:11.095Z,101066.81
2023-05-06T21:20:39.497Z,101073.03
2023-05-06T21:23:09.583Z,101074.22
2023-05-06T21:25:38.033Z,101078.41
2023-05-06T21:28:07.545Z,101077.88
2023-05-06T21:30:36.975Z,101081.59
2023-05-06T21:33:06.721Z,101077.91
2023-05-06T21:35:35.464Z,101073.03
2023-05-06T21:38:03.902Z,101078.91
2023-05-06T21:40:34.701Z,101077.88
2023-05-06T21:43:03.613Z,101076.38
2023-05-06T21:45:31.973Z,101081.09
2023-05-06T21:48:03.854Z,101077.38
2023-05-06T21:50:32.364Z,101083.56
2023-05-06T21:53:00.667Z,101092.97
2023-05-06T21:55:29.123Z,101095.81
2023-05-06T21:57:58.938Z,101102.91
2023-05-06T22:00:28.243Z,101116.50
2023-05-06T22:02:56.787Z,101118.53
2023-05-06T22:05:25.295Z,101128.94
2023-05-06T22:07:53.704Z,101142.00
2023-05-06T22:10:22.166Z,101138.63
2023-05-06T22:12:50.915Z,101134.94
2023-05-06T22:15:20.946Z,101128.25
2023-05-06T22:17:50.378Z,101131.81
2023-05-06T22:20:18.921Z,101141.28
2023-05-06T22:22:47.269Z,101142.50
2023-05-06T22:25:17.738Z,101137.78
2023-05-06T22:27:46.237Z,101138.47
2023-05-06T22:30:16.416Z,101136.78
2023-05-06T22:32:46.723Z,101134.41
2023-05-06T22:35:17.452Z,101139.97
2023-05-06T22:37:46.391Z,101133.56
2023-05-06T22:40:14.926Z,101129.72
2023-05-06T22:42:43.334Z,101129.03
2023-05-06T22:45:12.130Z,101130.00
2023-05-06T22:47:41.079Z,101128.63
2023-05-06T22:50:12.026Z,101114.44
2023-05-06T22:52:40.456Z,101135.50
2023-05-06T22:55:10.596Z,101120.22
2023-05-06T22:57:39.327Z,101113.66
2023-05-06T23:00:12.644Z,101121.88
2023-05-06T23:02:41.457Z,101118.31
2023-05-06T23:05:11.602Z,101116.94
2023-05-06T23:07:40.442Z,101112.06
2023-05-06T23:10:09.882Z,101106.00
2023-05-06T23:12:38.386Z,101116.06
2023-05-06T23:15:08.545Z,101106.63
2023-05-06T23:17:37.223Z,101110.63
2023-05-06T23:20:06.157Z,101087.22
2023-05-06T23:22:36.001Z,101112.16
2023-05-06T23:25:05.922Z,101110.63
2023-05-06T23:27:34.345Z,101098.56
2023-05-06T23:30:03.050Z,101103.25
2023-05-06T23:32:31.512Z,101095.19
2023-05-06T23:35:00.201Z,101102.72
2023-05-06T23:37:28.692Z,101099.53
2023-05-06T23:39:58.854Z,101100.03
2023-05-06T23:42:27.655Z,101087.75
2023-05-06T23:44:56.257Z,101088.06
2023-05-06T23:47:25.510Z,101086.84
2023-05-06T23:49:53.928Z,101092.91
2023-05-06T23:52:22.606Z,101089.44
2023-05-06T23:54:51.997Z,101084.72
2023-05-06T23:57:21.977Z,101082.53
2023-05-06T23:59:50.892Z,101082.63
